Time;durP1;ratioP1;P1;durP2;ratioP2;P2;SDS_P1;SDS_P2;PMS_P1;PMS_P2;Temp;Humidity;BMP_temperature;BMP_pressure;BME280_temperature;BME280_humidity;BME280_pressure;Samples;Min_cycle;Max_cycle;Signal;HPM_P1;HPM_P2
2023/01/09 00:01:33;;;;;;;;;;;9.00;86.70;;;;;;5005345;28;20277;-79
2023/01/09 00:03:58;;;;;;;;;;;8.90;87.00;;;;;;5014555;28;19913;-79
2023/01/09 00:06:24;;;;;;;;;;;8.90;86.90;;;;;;5032379;28;20368;-79
2023/01/09 00:08:52;;;;;;;;;;;9.00;86.60;;;;;;5059360;28;19909;-78
2023/01/09 00:11:18;;;;;;;;;;;8.80;86.80;;;;;;5030908;28;19918;-79
2023/01/09 00:13:44;;;;;;;;;;;8.90;86.90;;;;;;5032371;28;20258;-79
2023/01/09 00:16:09;;;;;;;;;;;9.00;86.90;;;;;;5015024;28;19936;-80
2023/01/09 00:18:35;;;;;;;;;;;8.90;86.40;;;;;;5038231;28;19920;-80
2023/01/09 00:21:01;;;;;;;;;;;8.80;86.40;;;;;;5023843;28;20282;-80
2023/01/09 00:23:27;;;;;;;;;;;8.80;87.00;;;;;;5010618;28;19913;-80
2023/01/09 00:26:02;;;;;;;;;;;8.80;86.90;;;;;;5033176;28;19924;-80
2023/01/09 00:28:28;;;;;;;;;;;8.70;87.10;;;;;;5012309;28;19920;-79
2023/01/09 00:30:57;;;;;;;;;;;8.70;87.10;;;;;;5011070;28;19917;-80
2023/01/09 00:33:34;;;;;;;;;;;8.60;86.50;;;;;;5012136;28;20326;-80
2023/01/09 00:36:02;;;;;;;;;;;8.60;86.60;;;;;;5031519;28;19931;-80
2023/01/09 00:38:27;;;;;;;;;;;8.50;87.20;;;;;;5031612;28;20289;-80
2023/01/09 00:40:54;;;;;;;;;;;8.50;87.20;;;;;;5009864;28;19924;-79
2023/01/09 00:43:21;;;;;;;;;;;8.50;87.00;;;;;;5025150;28;21047;-80
2023/01/09 00:45:46;;;;;;;;;;;8.50;86.90;;;;;;5014987;28;20012;-80
2023/01/09 00:48:15;;;;;;;;;;;8.40;87.70;;;;;;5044847;28;19971;-79
2023/01/09 00:50:41;;;;;;;;;;;8.50;87.70;;;;;;5039669;28;19918;-80
2023/01/09 00:53:15;;;;;;;;;;;8.40;87.50;;;;;;5010044;28;19913;-79
2023/01/09 00:55:41;;;;;;;;;;;8.40;87.50;;;;;;5002251;28;19914;-79
2023/01/09 00:58:07;;;;;;;;;;;8.30;87.70;;;;;;5030843;28;19924;-79
2023/01/09 01:00:32;;;;;;;;;;;8.40;87.70;;;;;;5011497;28;20323;-80
2023/01/09 01:02:58;;;;;;;;;;;8.30;87.60;;;;;;5053808;28;20422;-80
2023/01/09 01:08:11;;;;;;;;;;;8.30;87.30;;;;;;5033341;28;19943;-80
2023/01/09 01:10:37;;;;;;;;;;;8.20;87.40;;;;;;5009011;28;19913;-80
2023/01/09 01:13:02;;;;;;;;;;;8.20;87.30;;;;;;5027777;28;19995;-79
2023/01/09 01:15:28;;;;;;;;;;;8.10;87.40;;;;;;5037277;28;19912;-80
2023/01/09 01:17:53;;;;;;;;;;;8.10;88.00;;;;;;5028437;28;19921;-79
2023/01/09 01:20:19;;;;;;;;;;;8.10;88.00;;;;;;5012178;28;20426;-79
2023/01/09 01:22:45;;;;;;;;;;;8.10;88.20;;;;;;5010878;28;20284;-80
2023/01/09 01:25:11;;;;;;;;;;;8.10;88.00;;;;;;5034037;28;19924;-79
2023/01/09 01:27:37;;;;;;;;;;;8.10;88.10;;;;;;5008043;28;20011;-79
2023/01/09 01:30:02;;;;;;;;;;;8.00;88.20;;;;;;5011387;28;20324;-80
2023/01/09 01:32:28;;;;;;;;;;;8.10;87.90;;;;;;5037919;28;20280;-78
2023/01/09 01:34:53;;;;;;;;;;;8.10;87.90;;;;;;5015124;28;19914;-80
2023/01/09 01:37:20;;;;;;;;;;;8.00;87.80;;;;;;5012658;28;20310;-80
2023/01/09 01:39:46;;;;;;;;;;;8.10;88.10;;;;;;5010398;28;19928;-80
2023/01/09 01:42:12;;;;;;;;;;;8.00;87.90;;;;;;5013102;28;19917;-79
2023/01/09 01:44:57;;;;;;;;;;;8.10;88.10;;;;;;5023835;28;19917;-80
2023/01/09 01:47:23;;;;;;;;;;;8.10;88.10;;;;;;5039852;28;19917;-80
2023/01/09 01:49:49;;;;;;;;;;;8.10;87.60;;;;;;5017292;28;20438;-79
2023/01/09 01:52:16;;;;;;;;;;;8.10;87.80;;;;;;5033482;28;19909;-79
2023/01/09 01:54:42;;;;;;;;;;;8.00;87.30;;;;;;5014680;28;19913;-80
2023/01/09 01:57:08;;;;;;;;;;;7.90;87.40;;;;;;5020801;28;19980;-79
2023/01/09 01:59:37;;;;;;;;;;;7.90;87.30;;;;;;5012202;28;19956;-80
2023/01/09 02:02:03;;;;;;;;;;;7.90;87.00;;;;;;5013027;28;19921;-80
2023/01/09 02:04:29;;;;;;;;;;;7.90;87.00;;;;;;5011775;28;19971;-80
2023/01/09 02:06:55;;;;;;;;;;;7.90;87.00;;;;;;5011995;28;19968;-80
2023/01/09 02:09:22;;;;;;;;;;;7.90;87.10;;;;;;5033662;28;19913;-80
2023/01/09 02:11:51;;;;;;;;;;;7.90;87.10;;;;;;5012254;28;20558;-80
2023/01/09 02:14:18;;;;;;;;;;;7.90;87.50;;;;;;5021837;28;20028;-80
2023/01/09 02:16:58;;;;;;;;;;;7.80;86.80;;;;;;5021397;28;19917;-80
2023/01/09 02:19:43;;;;;;;;;;;7.80;86.70;;;;;;5016268;28;19928;-80
2023/01/09 02:22:08;;;;;;;;;;;7.90;86.90;;;;;;5020144;28;19925;-80
2023/01/09 02:24:56;;;;;;;;;;;7.90;86.70;;;;;;5012192;28;19917;-80
2023/01/09 02:27:40;;;;;;;;;;;7.80;86.90;;;;;;5026023;28;19913;-79
2023/01/09 02:30:12;;;;;;;;;;;7.80;86.50;;;;;;5010051;28;19919;-80
2023/01/09 02:32:44;;;;;;;;;;;7.80;86.80;;;;;;5013779;28;19916;-79
2023/01/09 02:35:31;;;;;;;;;;;7.80;86.70;;;;;;5017292;28;19964;-80
2023/01/09 02:38:03;;;;;;;;;;;7.80;86.60;;;;;;5006452;28;19956;-80
2023/01/09 02:40:52;;;;;;;;;;;7.80;86.80;;;;;;5011542;28;20055;-80
2023/01/09 02:43:18;;;;;;;;;;;7.80;86.70;;;;;;5022012;28;19913;-79
2023/01/09 02:45:43;;;;;;;;;;;7.80;86.60;;;;;;5028437;28;19917;-80
2023/01/09 02:48:10;;;;;;;;;;;7.80;86.90;;;;;;5021451;28;19985;-80
2023/01/09 02:50:58;;;;;;;;;;;7.80;86.80;;;;;;5013703;28;19918;-80
2023/01/09 02:53:24;;;;;;;;;;;7.70;86.90;;;;;;4997070;28;20407;-80
2023/01/09 02:56:13;;;;;;;;;;;7.60;87.10;;;;;;5001152;28;19960;-80
2023/01/09 02:58:57;;;;;;;;;;;7.60;87.40;;;;;;5004432;28;19917;-80
2023/01/09 03:01:45;;;;;;;;;;;7.60;87.60;;;;;;5011152;28;19927;-80
2023/01/09 03:04:25;;;;;;;;;;;7.60;87.50;;;;;;5011686;28;19976;-80
2023/01/09 03:07:10;;;;;;;;;;;7.60;87.40;;;;;;5020096;28;20380;-79
2023/01/09 03:09:37;;;;;;;;;;;7.50;87.50;;;;;;5014055;28;19917;-80
2023/01/09 03:12:23;;;;;;;;;;;7.60;87.40;;;;;;5014518;28;19924;-80
2023/01/09 03:14:50;;;;;;;;;;;7.50;87.50;;;;;;5035283;28;19917;-80
2023/01/09 03:17:24;;;;;;;;;;;7.40;87.50;;;;;;5033209;28;19913;-78
2023/01/09 03:19:52;;;;;;;;;;;7.50;87.20;;;;;;5022492;28;19952;-79
2023/01/09 03:22:17;;;;;;;;;;;7.40;87.40;;;;;;5024722;28;20361;-79
2023/01/09 03:24:42;;;;;;;;;;;7.50;87.50;;;;;;5045633;28;19909;-78
2023/01/09 03:27:08;;;;;;;;;;;7.50;87.60;;;;;;5032157;28;19924;-78
2023/01/09 03:29:33;;;;;;;;;;;7.60;87.30;;;;;;5037830;28;19905;-78
2023/01/09 03:31:59;;;;;;;;;;;7.50;87.30;;;;;;5029570;28;19917;-78
2023/01/09 03:34:25;;;;;;;;;;;7.50;87.50;;;;;;5035167;28;19979;-79
2023/01/09 03:36:50;;;;;;;;;;;7.60;87.30;;;;;;5014649;28;19913;-77
2023/01/09 03:39:15;;;;;;;;;;;7.60;87.50;;;;;;5042885;28;19913;-79
2023/01/09 03:41:41;;;;;;;;;;;7.70;86.80;;;;;;5015457;28;19956;-79
2023/01/09 03:44:06;;;;;;;;;;;7.60;86.80;;;;;;5008604;28;20008;-79
2023/01/09 03:46:32;;;;;;;;;;;7.60;86.90;;;;;;5015188;28;19917;-79
2023/01/09 03:48:57;;;;;;;;;;;7.70;86.60;;;;;;5031609;28;20434;-78
2023/01/09 03:51:23;;;;;;;;;;;7.70;86.80;;;;;;5041139;28;19912;-79
2023/01/09 03:53:48;;;;;;;;;;;7.60;86.90;;;;;;5052215;28;20408;-80
2023/01/09 03:56:14;;;;;;;;;;;7.70;86.80;;;;;;5014448;28;19916;-79
2023/01/09 03:58:42;;;;;;;;;;;7.70;86.50;;;;;;5065702;23;20275;-88
2023/01/09 04:01:11;;;;;;;;;;;7.80;86.60;;;;;;5036101;28;19917;-89
2023/01/09 04:03:39;;;;;;;;;;;7.70;86.60;;;;;;5027925;28;19913;-88
2023/01/09 04:06:05;;;;;;;;;;;7.80;86.10;;;;;;5054124;28;20011;-89
2023/01/09 04:08:30;;;;;;;;;;;7.80;86.40;;;;;;5058482;28;19948;-88
2023/01/09 04:10:56;;;;;;;;;;;7.80;86.40;;;;;;5066088;28;19964;-89
2023/01/09 04:13:22;;;;;;;;;;;7.80;85.80;;;;;;5058811;28;19905;-88
2023/01/09 04:15:47;;;;;;;;;;;7.80;86.00;;;;;;5066804;28;19987;-87
2023/01/09 04:18:13;;;;;;;;;;;7.80;86.00;;;;;;5047792;28;20271;-87
2023/01/09 04:20:39;;;;;;;;;;;7.80;85.20;;;;;;5056824;28;19980;-87
2023/01/09 04:23:04;;;;;;;;;;;7.70;85.90;;;;;;5035449;28;19909;-89
2023/01/09 04:25:29;;;;;;;;;;;7.80;85.40;;;;;;5043100;28;19921;-88
2023/01/09 04:27:55;;;;;;;;;;;7.70;85.60;;;;;;5037062;28;19909;-88
2023/01/09 04:30:20;;;;;;;;;;;7.70;85.10;;;;;;5037884;28;19955;-88
2023/01/09 04:32:46;;;;;;;;;;;7.60;85.60;;;;;;5046611;28;19909;-87
2023/01/09 04:35:11;;;;;;;;;;;7.60;85.50;;;;;;5033657;28;19913;-87
2023/01/09 04:37:37;;;;;;;;;;;7.60;85.20;;;;;;5035595;28;19909;-89
2023/01/09 04:40:09;;;;;;;;;;;7.60;84.90;;;;;;5046619;28;19962;-87
2023/01/09 04:42:35;;;;;;;;;;;7.60;84.80;;;;;;5060957;28;19916;-87
2023/01/09 04:45:00;;;;;;;;;;;7.50;85.00;;;;;;5052422;28;19916;-88
2023/01/09 04:47:26;;;;;;;;;;;7.50;85.20;;;;;;5037047;28;20376;-87
2023/01/09 04:49:51;;;;;;;;;;;7.50;85.30;;;;;;5031503;28;19909;-87
2023/01/09 04:52:17;;;;;;;;;;;7.30;85.20;;;;;;5056218;28;19913;-87
2023/01/09 04:54:42;;;;;;;;;;;7.30;84.90;;;;;;5039896;28;19991;-87
2023/01/09 04:57:08;;;;;;;;;;;7.20;85.30;;;;;;5039199;28;19921;-87
2023/01/09 04:59:33;;;;;;;;;;;7.20;85.10;;;;;;5033335;28;19913;-87
2023/01/09 05:01:59;;;;;;;;;;;7.10;85.30;;;;;;5030967;28;20301;-87
2023/01/09 05:04:25;;;;;;;;;;;7.00;85.40;;;;;;5040238;28;19973;-88
2023/01/09 05:06:50;;;;;;;;;;;7.00;85.60;;;;;;5034595;28;19920;-87
2023/01/09 05:09:16;;;;;;;;;;;7.00;85.20;;;;;;5035429;28;19917;-87
2023/01/09 05:11:41;;;;;;;;;;;7.00;85.40;;;;;;5045481;28;19919;-86
2023/01/09 05:14:06;;;;;;;;;;;7.00;85.30;;;;;;5033002;28;19917;-87
2023/01/09 05:16:32;;;;;;;;;;;6.90;85.50;;;;;;5052094;28;19948;-87
2023/01/09 05:18:59;;;;;;;;;;;6.80;85.40;;;;;;5021349;28;19972;-87
2023/01/09 05:21:25;;;;;;;;;;;6.80;85.50;;;;;;5033868;28;19912;-88
2023/01/09 05:23:50;;;;;;;;;;;6.80;85.60;;;;;;5024032;28;19999;-88
2023/01/09 05:26:22;;;;;;;;;;;6.90;85.60;;;;;;5056235;28;19912;-87
2023/01/09 05:28:55;;;;;;;;;;;6.90;85.50;;;;;;5030825;28;19928;-87
2023/01/09 05:31:21;;;;;;;;;;;6.80;85.60;;;;;;5054684;28;20128;-88
2023/01/09 05:33:47;;;;;;;;;;;6.90;85.30;;;;;;5035958;28;19913;-86
2023/01/09 05:36:12;;;;;;;;;;;6.90;85.40;;;;;;5021189;28;19919;-87
2023/01/09 05:38:38;;;;;;;;;;;6.80;85.20;;;;;;5034774;28;19955;-88
2023/01/09 05:41:07;;;;;;;;;;;6.80;84.90;;;;;;5024123;28;19948;-86
2023/01/09 05:43:33;;;;;;;;;;;6.90;84.70;;;;;;5042091;28;19968;-87
2023/01/09 05:45:58;;;;;;;;;;;6.90;84.70;;;;;;5058478;28;19928;-88
2023/01/09 05:48:26;;;;;;;;;;;7.00;85.00;;;;;;5066724;28;19912;-87
2023/01/09 05:50:51;;;;;;;;;;;7.10;84.50;;;;;;5042324;28;20501;-87
2023/01/09 05:53:17;;;;;;;;;;;7.10;84.20;;;;;;5022055;28;19964;-87
2023/01/09 05:55:43;;;;;;;;;;;7.20;84.30;;;;;;5050655;28;19913;-86
2023/01/09 05:58:08;;;;;;;;;;;7.20;84.60;;;;;;5034060;28;19986;-87
2023/01/09 06:00:33;;;;;;;;;;;7.20;83.60;;;;;;5042734;28;20486;-87
2023/01/09 06:02:59;;;;;;;;;;;7.30;83.40;;;;;;5036180;28;20088;-88
2023/01/09 06:05:24;;;;;;;;;;;7.30;83.60;;;;;;5035430;28;19928;-87
2023/01/09 06:07:52;;;;;;;;;;;7.30;83.00;;;;;;5029827;28;19951;-85
2023/01/09 06:10:18;;;;;;;;;;;7.40;82.90;;;;;;5032542;28;19952;-89
2023/01/09 06:12:48;;;;;;;;;;;7.20;82.00;;;;;;5046449;28;19920;-88
2023/01/09 06:15:14;;;;;;;;;;;7.30;82.40;;;;;;5047734;28;19917;-88
2023/01/09 06:17:40;;;;;;;;;;;7.30;82.50;;;;;;5032850;28;19913;-86
2023/01/09 06:20:06;;;;;;;;;;;7.30;82.00;;;;;;5038659;28;20397;-88
2023/01/09 06:22:31;;;;;;;;;;;7.40;81.90;;;;;;5024060;28;19913;-88
2023/01/09 06:24:56;;;;;;;;;;;7.50;81.40;;;;;;5051345;28;20413;-87
2023/01/09 06:27:22;;;;;;;;;;;7.30;81.80;;;;;;5029430;28;19920;-88
2023/01/09 06:29:53;;;;;;;;;;;7.30;82.10;;;;;;5023641;28;19917;-85
2023/01/09 06:32:19;;;;;;;;;;;7.30;81.60;;;;;;5023918;28;20294;-82
2023/01/09 06:34:45;;;;;;;;;;;7.30;82.20;;;;;;5028914;28;19920;-88
2023/01/09 06:37:10;;;;;;;;;;;7.30;82.00;;;;;;5052338;28;20019;-89
2023/01/09 06:39:36;;;;;;;;;;;7.30;82.10;;;;;;5020421;28;19913;-89
2023/01/09 06:42:02;;;;;;;;;;;7.30;81.80;;;;;;5017388;28;19964;-90
2023/01/09 06:44:27;;;;;;;;;;;7.30;82.10;;;;;;5022693;28;20016;-90
2023/01/09 06:46:53;;;;;;;;;;;7.30;82.50;;;;;;5028923;28;20445;-87
2023/01/09 06:49:23;;;;;;;;;;;7.40;82.40;;;;;;5043148;28;19916;-86
2023/01/09 06:51:49;;;;;;;;;;;7.40;82.00;;;;;;5065035;28;19941;-86
2023/01/09 06:54:18;;;;;;;;;;;7.30;82.20;;;;;;5045614;28;19916;-85
2023/01/09 06:56:46;;;;;;;;;;;7.30;82.50;;;;;;5038093;28;19913;-87
2023/01/09 06:59:12;;;;;;;;;;;7.30;83.10;;;;;;5034112;28;19924;-86
2023/01/09 07:01:48;;;;;;;;;;;7.30;83.80;;;;;;5058529;28;19920;-86
2023/01/09 07:04:23;;;;;;;;;;;7.30;84.00;;;;;;5027560;28;19913;-87
2023/01/09 07:06:52;;;;;;;;;;;7.30;84.60;;;;;;5049026;28;20412;-87
2023/01/09 07:09:17;;;;;;;;;;;7.20;84.60;;;;;;5039940;28;20358;-87
2023/01/09 07:11:43;;;;;;;;;;;7.20;84.60;;;;;;5045540;28;19921;-87
2023/01/09 07:14:08;;;;;;;;;;;7.10;84.70;;;;;;5035472;28;19936;-86
2023/01/09 07:16:34;;;;;;;;;;;7.10;84.90;;;;;;5033666;28;19908;-86
2023/01/09 07:19:02;;;;;;;;;;;7.10;84.70;;;;;;5054731;28;20007;-87
2023/01/09 07:21:28;;;;;;;;;;;7.10;84.80;;;;;;5035617;28;20378;-87
2023/01/09 07:23:56;;;;;;;;;;;7.10;84.50;;;;;;5055134;28;19919;-87
2023/01/09 07:26:21;;;;;;;;;;;7.10;84.80;;;;;;5063888;28;19924;-85
2023/01/09 07:28:47;;;;;;;;;;;7.20;84.90;;;;;;5076392;28;19920;-85
2023/01/09 07:31:13;;;;;;;;;;;7.20;84.60;;;;;;5052874;28;19913;-86
2023/01/09 07:33:41;;;;;;;;;;;7.20;84.20;;;;;;5052287;28;20374;-86
2023/01/09 07:36:13;;;;;;;;;;;7.20;84.30;;;;;;5037621;28;20381;-86
2023/01/09 07:38:38;;;;;;;;;;;7.20;84.30;;;;;;5055279;28;19988;-87
2023/01/09 07:41:04;;;;;;;;;;;7.20;83.90;;;;;;5055487;28;19955;-88
2023/01/09 07:43:30;;;;;;;;;;;7.20;83.60;;;;;;5036114;28;19951;-86
2023/01/09 07:45:55;;;;;;;;;;;7.20;84.10;;;;;;5039418;28;19948;-86
2023/01/09 07:48:27;;;;;;;;;;;7.30;83.80;;;;;;5035946;28;19923;-86
2023/01/09 07:50:56;;;;;;;;;;;7.20;83.60;;;;;;5035349;28;19908;-86
2023/01/09 07:53:21;;;;;;;;;;;7.20;84.10;;;;;;5044864;28;20012;-86
2023/01/09 07:55:50;;;;;;;;;;;7.30;83.60;;;;;;5035704;28;19964;-86
2023/01/09 07:58:18;;;;;;;;;;;7.30;83.60;;;;;;5036342;28;19917;-86
2023/01/09 08:00:43;;;;;;;;;;;7.30;83.60;;;;;;5037962;28;19920;-86
2023/01/09 08:03:09;;;;;;;;;;;7.30;83.40;;;;;;5034083;28;19980;-86
2023/01/09 08:05:35;;;;;;;;;;;7.30;83.20;;;;;;5036292;28;19923;-87
2023/01/09 08:08:00;;;;;;;;;;;7.30;83.70;;;;;;5075468;28;19912;-86
2023/01/09 08:10:26;;;;;;;;;;;7.30;83.90;;;;;;5060319;28;19943;-86
2023/01/09 08:12:55;;;;;;;;;;;7.30;84.10;;;;;;5045829;28;19927;-87
2023/01/09 08:15:23;;;;;;;;;;;7.30;84.00;;;;;;5054905;28;19913;-87
2023/01/09 08:17:51;;;;;;;;;;;7.40;84.10;;;;;;5034168;28;19920;-85
2023/01/09 08:20:20;;;;;;;;;;;7.40;83.70;;;;;;5031154;28;20374;-86
2023/01/09 08:22:53;;;;;;;;;;;7.40;83.60;;;;;;5034793;28;19960;-86
2023/01/09 08:25:18;;;;;;;;;;;7.50;83.70;;;;;;5034882;28;19994;-87
2023/01/09 08:27:53;;;;;;;;;;;7.50;83.30;;;;;;5034203;28;19951;-87
2023/01/09 08:30:26;;;;;;;;;;;7.60;83.60;;;;;;5026535;28;19913;-86
2023/01/09 08:32:55;;;;;;;;;;;7.60;83.30;;;;;;5033262;28;20488;-87
2023/01/09 08:35:29;;;;;;;;;;;7.50;83.40;;;;;;5033612;28;20243;-87
2023/01/09 08:38:01;;;;;;;;;;;7.50;83.10;;;;;;5035179;28;19968;-86
2023/01/09 08:40:26;;;;;;;;;;;7.50;83.00;;;;;;5035194;28;19917;-87
2023/01/09 08:48:20;;;;;;;;;;;7.50;84.10;;;;;;5053462;28;19966;-88
2023/01/09 08:50:46;;;;;;;;;;;7.40;84.80;;;;;;5040296;28;19916;-87
2023/01/09 08:53:12;;;;;;;;;;;7.40;84.70;;;;;;5037804;28;19920;-87
2023/01/09 08:55:48;;;;;;;;;;;7.50;84.70;;;;;;5033453;28;20263;-87
2023/01/09 08:58:29;;;;;;;;;;;7.40;85.10;;;;;;5028110;28;20293;-86
2023/01/09 09:00:57;;;;;;;;;;;7.50;85.30;;;;;;5033603;28;19939;-86
2023/01/09 09:03:23;;;;;;;;;;;7.50;85.10;;;;;;5041641;28;19901;-85
2023/01/09 09:05:49;;;;;;;;;;;7.50;84.90;;;;;;5034367;28;20015;-87
2023/01/09 09:08:15;;;;;;;;;;;7.50;85.30;;;;;;5054610;28;19922;-86
2023/01/09 09:10:43;;;;;;;;;;;7.50;85.10;;;;;;5036418;28;19986;-87
2023/01/09 09:13:09;;;;;;;;;;;7.60;85.00;;;;;;5033148;28;19999;-86
2023/01/09 09:15:36;;;;;;;;;;;7.60;85.00;;;;;;5034824;28;19936;-86
2023/01/09 09:18:05;;;;;;;;;;;7.70;85.00;;;;;;5033828;28;19913;-87
2023/01/09 09:20:35;;;;;;;;;;;7.60;84.80;;;;;;5025522;28;20003;-86
2023/01/09 09:23:04;;;;;;;;;;;7.60;85.30;;;;;;5033735;28;19913;-87
2023/01/09 09:25:37;;;;;;;;;;;7.60;86.00;;;;;;5033744;28;19982;-86
2023/01/09 09:28:02;;;;;;;;;;;7.60;85.80;;;;;;5033504;28;19913;-87
2023/01/09 09:30:28;;;;;;;;;;;7.60;86.00;;;;;;5032197;28;19967;-87
2023/01/09 09:32:54;;;;;;;;;;;7.60;86.50;;;;;;5033229;28;19936;-89
2023/01/09 09:35:21;;;;;;;;;;;7.50;86.60;;;;;;5049918;28;19956;-86
2023/01/09 09:37:56;;;;;;;;;;;7.50;86.70;;;;;;5050959;28;20040;-87
2023/01/09 09:40:54;;;;;;;;;;;7.50;87.20;;;;;;5052234;28;19916;-87
2023/01/09 09:46:39;;;;;;;;;;;7.50;87.40;;;;;;5043294;28;20342;-87
2023/01/09 09:49:23;;;;;;;;;;;7.50;87.90;;;;;;5033976;28;19959;-87
2023/01/09 09:51:52;;;;;;;;;;;7.40;87.70;;;;;;5030616;28;19912;-88
2023/01/09 09:54:23;;;;;;;;;;;7.40;87.70;;;;;;5037975;28;19913;-89
2023/01/09 09:56:54;;;;;;;;;;;7.40;88.00;;;;;;5055718;28;19960;-86
2023/01/09 09:59:21;;;;;;;;;;;7.50;87.90;;;;;;5029013;23;19933;-81
2023/01/09 10:01:52;;;;;;;;;;;7.50;88.10;;;;;;5028388;28;19913;-82
2023/01/09 10:04:20;;;;;;;;;;;7.50;87.90;;;;;;5026948;28;20193;-82
2023/01/09 10:07:08;;;;;;;;;;;7.40;87.80;;;;;;5030654;28;19921;-81
2023/01/09 10:09:36;;;;;;;;;;;7.50;88.00;;;;;;5007682;28;19964;-81
2023/01/09 10:12:02;;;;;;;;;;;7.50;88.10;;;;;;5025154;28;19913;-81
2023/01/09 10:14:28;;;;;;;;;;;7.50;88.10;;;;;;5012962;28;19913;-82
2023/01/09 10:17:12;;;;;;;;;;;7.50;88.00;;;;;;5017907;28;19978;-81
2023/01/09 10:19:57;;;;;;;;;;;7.60;88.10;;;;;;5005037;28;20373;-80
2023/01/09 10:22:37;;;;;;;;;;;7.60;87.90;;;;;;5050371;28;19967;-82
2023/01/09 10:25:03;;;;;;;;;;;7.60;88.00;;;;;;5055579;28;19920;-81
2023/01/09 10:27:34;;;;;;;;;;;7.60;88.10;;;;;;5016500;28;19909;-81
2023/01/09 10:30:18;;;;;;;;;;;7.60;87.70;;;;;;5011127;28;19940;-83
2023/01/09 10:32:44;;;;;;;;;;;7.60;87.70;;;;;;5005014;28;19917;-82
2023/01/09 10:35:21;;;;;;;;;;;7.60;87.60;;;;;;5017584;28;20428;-82
2023/01/09 10:37:52;;;;;;;;;;;7.60;88.00;;;;;;5032263;28;20288;-82
2023/01/09 10:40:43;;;;;;;;;;;7.70;88.20;;;;;;5028412;28;19913;-82
2023/01/09 10:43:18;;;;;;;;;;;7.80;88.00;;;;;;5028303;28;19921;-81
2023/01/09 10:45:45;;;;;;;;;;;7.80;87.70;;;;;;5011284;28;19949;-82
2023/01/09 10:48:26;;;;;;;;;;;7.80;87.40;;;;;;5028312;28;19909;-82
2023/01/09 10:50:53;;;;;;;;;;;7.90;87.30;;;;;;5011729;28;19917;-82
2023/01/09 10:53:21;;;;;;;;;;;7.90;87.10;;;;;;5035247;28;19917;-81
2023/01/09 10:55:47;;;;;;;;;;;8.10;87.10;;;;;;5035214;28;19928;-84
2023/01/09 10:58:24;;;;;;;;;;;8.30;87.30;;;;;;5023038;23;19934;-91
2023/01/09 11:00:55;;;;;;;;;;;8.40;86.60;;;;;;4996380;28;19917;-91
2023/01/09 11:03:22;;;;;;;;;;;8.50;85.80;;;;;;5002101;28;19917;-91
2023/01/09 11:05:51;;;;;;;;;;;8.50;85.80;;;;;;4993791;28;20008;-91
2023/01/09 11:08:21;;;;;;;;;;;8.50;85.30;;;;;;5010947;28;19945;-91
2023/01/09 11:10:48;;;;;;;;;;;8.40;85.30;;;;;;4999492;28;19969;-92
2023/01/09 11:13:14;;;;;;;;;;;8.50;85.00;;;;;;4998600;28;19913;-92
2023/01/09 11:15:42;;;;;;;;;;;8.40;84.80;;;;;;5003370;28;19914;-91
2023/01/09 11:18:19;;;;;;;;;;;8.40;84.10;;;;;;4992958;28;19988;-90
2023/01/09 11:20:44;;;;;;;;;;;8.50;83.20;;;;;;4989451;28;19961;-88
2023/01/09 11:23:27;;;;;;;;;;;8.50;84.00;;;;;;4992383;28;20364;-89
2023/01/09 11:25:53;;;;;;;;;;;8.50;83.70;;;;;;4984174;28;19964;-89
2023/01/09 11:28:19;;;;;;;;;;;8.50;83.60;;;;;;4993426;28;19914;-90
2023/01/09 11:30:51;;;;;;;;;;;8.60;83.10;;;;;;5037947;28;19901;-89
2023/01/09 11:33:24;;;;;;;;;;;8.70;83.00;;;;;;5019563;28;19914;-91
2023/01/09 11:35:55;;;;;;;;;;;8.80;81.80;;;;;;4992294;28;19914;-92
2023/01/09 11:38:21;;;;;;;;;;;8.80;81.70;;;;;;4997143;28;19956;-91
2023/01/09 11:40:50;;;;;;;;;;;8.80;82.20;;;;;;4991780;28;19980;-92
2023/01/09 11:43:18;;;;;;;;;;;8.80;81.30;;;;;;4987764;28;19914;-92
2023/01/09 11:45:45;;;;;;;;;;;8.70;81.20;;;;;;4982846;28;20031;-92
2023/01/09 11:48:25;;;;;;;;;;;8.70;81.70;;;;;;4997283;28;20486;-91
2023/01/09 11:50:54;;;;;;;;;;;8.80;81.30;;;;;;5016870;28;20374;-92
2023/01/09 11:53:20;;;;;;;;;;;8.70;81.60;;;;;;4991981;28;19984;-92
2023/01/09 11:55:49;;;;;;;;;;;8.70;80.90;;;;;;4996749;28;20013;-89
2023/01/09 11:58:15;;;;;;;;;;;8.70;81.00;;;;;;4996672;28;19914;-89
2023/01/09 12:00:52;;;;;;;;;;;8.70;81.10;;;;;;4995136;28;19921;-90
2023/01/09 12:03:36;;;;;;;;;;;8.70;81.50;;;;;;4993577;28;19913;-88
2023/01/09 12:06:13;;;;;;;;;;;8.70;80.90;;;;;;4993381;28;20003;-89
2023/01/09 12:08:47;;;;;;;;;;;8.80;81.80;;;;;;4994954;28;19918;-88
2023/01/09 12:11:16;;;;;;;;;;;8.70;81.30;;;;;;5012311;28;19924;-87
2023/01/09 12:14:02;;;;;;;;;;;8.70;81.50;;;;;;4990923;28;19940;-89
2023/01/09 12:16:46;;;;;;;;;;;8.80;82.50;;;;;;4966737;28;19917;-88
2023/01/09 12:19:33;;;;;;;;;;;8.60;81.80;;;;;;5001484;28;20387;-89
2023/01/09 12:22:17;;;;;;;;;;;8.50;83.00;;;;;;5012431;28;19916;-90
2023/01/09 12:24:46;;;;;;;;;;;8.50;83.30;;;;;;4991144;28;19914;-90
2023/01/09 12:27:26;;;;;;;;;;;8.50;83.80;;;;;;4998886;28;19913;-88
2023/01/09 12:30:10;;;;;;;;;;;8.40;84.50;;;;;;4983530;28;19924;-88
2023/01/09 12:32:52;;;;;;;;;;;8.40;84.80;;;;;;5010471;28;19968;-87
2023/01/09 12:35:34;;;;;;;;;;;8.40;85.30;;;;;;4996819;28;20489;-88
2023/01/09 12:38:10;;;;;;;;;;;8.50;85.50;;;;;;4992314;28;19995;-88
2023/01/09 12:40:54;;;;;;;;;;;8.50;85.10;;;;;;4991040;28;19913;-87
2023/01/09 12:43:40;;;;;;;;;;;8.40;85.20;;;;;;4992876;28;19920;-88
2023/01/09 12:46:19;;;;;;;;;;;8.50;85.60;;;;;;5000956;28;20501;-85
2023/01/09 12:49:04;;;;;;;;;;;8.40;85.50;;;;;;4987615;28;19917;-87
2023/01/09 12:51:29;;;;;;;;;;;8.30;85.90;;;;;;4994215;28;19983;-88
2023/01/09 12:54:04;;;;;;;;;;;8.30;85.90;;;;;;5015303;28;20367;-88
2023/01/09 12:56:35;;;;;;;;;;;8.30;85.60;;;;;;5015508;28;19964;-87
2023/01/09 12:59:06;;;;;;;;;;;8.30;86.00;;;;;;5004889;28;20043;-86
2023/01/09 13:01:33;;;;;;;;;;;8.20;86.50;;;;;;5003972;28;19917;-87
2023/01/09 13:04:02;;;;;;;;;;;8.20;86.90;;;;;;4998703;28;20446;-87
2023/01/09 13:06:28;;;;;;;;;;;8.20;86.90;;;;;;4995860;28;19924;-86
2023/01/09 13:09:00;;;;;;;;;;;8.20;87.00;;;;;;5004891;28;19952;-87
2023/01/09 13:11:41;;;;;;;;;;;8.20;86.50;;;;;;5011455;28;19967;-89
2023/01/09 13:14:13;;;;;;;;;;;8.20;87.00;;;;;;5004735;28;19940;-87
2023/01/09 13:16:42;;;;;;;;;;;8.30;86.30;;;;;;4990553;28;19926;-88
2023/01/09 13:19:14;;;;;;;;;;;8.20;86.10;;;;;;4994950;28;19910;-87
2023/01/09 13:21:40;;;;;;;;;;;8.30;85.50;;;;;;5005758;28;19913;-89
2023/01/09 13:24:14;;;;;;;;;;;8.10;86.00;;;;;;5006527;28;20008;-88
2023/01/09 13:26:49;;;;;;;;;;;8.10;86.20;;;;;;5006479;28;19996;-86
2023/01/09 13:29:50;;;;;;;;;;;8.30;86.10;;;;;;4987096;28;20470;-87
2023/01/09 13:32:34;;;;;;;;;;;8.30;85.10;;;;;;4896355;29;19919;-88
2023/01/09 13:35:00;;;;;;;;;;;8.30;84.80;;;;;;4980602;28;19914;-88
2023/01/09 13:37:25;;;;;;;;;;;8.20;85.00;;;;;;4991355;28;20025;-88
2023/01/09 13:40:28;;;;;;;;;;;8.30;84.30;;;;;;4976884;28;21796;-88
2023/01/09 13:42:54;;;;;;;;;;;8.20;84.10;;;;;;4892046;29;19948;-88
2023/01/09 13:45:21;;;;;;;;;;;8.10;84.10;;;;;;4967988;28;19913;-88
2023/01/09 13:48:06;;;;;;;;;;;8.10;84.80;;;;;;4991335;28;19977;-90
2023/01/09 13:50:32;;;;;;;;;;;8.10;84.60;;;;;;4978992;28;20013;-87
2023/01/09 13:53:17;;;;;;;;;;;8.10;84.70;;;;;;4979430;28;20268;-88
2023/01/09 13:56:03;;;;;;;;;;;8.10;84.40;;;;;;5008731;28;19920;-87
2023/01/09 13:58:37;;;;;;;;;;;8.10;84.50;;;;;;4979371;28;22178;-90
2023/01/09 14:01:03;;;;;;;;;;;8.10;84.50;;;;;;4992996;28;19939;-88
2023/01/09 14:03:31;;;;;;;;;;;8.10;84.50;;;;;;5007666;28;19913;-89
2023/01/09 14:05:57;;;;;;;;;;;8.10;84.00;;;;;;4986924;28;19926;-87
2023/01/09 14:08:25;;;;;;;;;;;8.20;83.60;;;;;;5012191;28;19917;-87
2023/01/09 14:10:51;;;;;;;;;;;8.20;83.40;;;;;;5007039;28;19960;-89
2023/01/09 14:13:17;;;;;;;;;;;8.10;83.90;;;;;;5001247;28;19984;-90
2023/01/09 14:15:45;;;;;;;;;;;8.10;84.10;;;;;;4981554;28;20409;-87
2023/01/09 14:18:17;;;;;;;;;;;8.20;83.50;;;;;;4996741;28;19917;-86
2023/01/09 14:20:44;;;;;;;;;;;8.20;83.60;;;;;;4995875;28;19933;-89
2023/01/09 14:23:23;;;;;;;;;;;8.20;83.80;;;;;;5004457;28;19973;-85
2023/01/09 14:25:52;;;;;;;;;;;8.20;83.90;;;;;;5031911;28;19961;-84
2023/01/09 14:28:36;;;;;;;;;;;8.20;83.60;;;;;;4999188;28;19914;-86
2023/01/09 14:31:03;;;;;;;;;;;8.20;83.70;;;;;;5006793;28;19917;-85
2023/01/09 14:33:28;;;;;;;;;;;8.10;83.80;;;;;;5026891;28;20294;-85
2023/01/09 14:36:13;;;;;;;;;;;8.10;83.40;;;;;;4986038;28;19914;-87
2023/01/09 14:38:52;;;;;;;;;;;8.10;84.10;;;;;;4995827;28;19926;-87
2023/01/09 14:44:28;;;;;;;;;;;8.00;84.20;;;;;;5004989;28;19932;-86
2023/01/09 14:46:53;;;;;;;;;;;8.00;84.60;;;;;;5005011;28;19932;-87
2023/01/09 14:49:33;;;;;;;;;;;8.00;84.30;;;;;;5003010;28;19914;-86
2023/01/09 14:52:06;;;;;;;;;;;8.00;84.60;;;;;;4990003;28;19921;-87
2023/01/09 14:54:38;;;;;;;;;;;8.00;84.10;;;;;;4995762;28;19960;-87
2023/01/09 14:57:21;;;;;;;;;;;7.90;84.50;;;;;;5003481;28;20490;-87
2023/01/09 14:59:53;;;;;;;;;;;8.00;84.60;;;;;;4995498;28;20326;-87
2023/01/09 15:02:19;;;;;;;;;;;7.90;85.20;;;;;;5002372;28;19913;-87